Chilili, New Mexico
Current Conditions -  °F | °C
As of 9:52 PM on Friday 19 Dec 2014 (Local Time) from KABQ Reporting Station
Few Clouds Few Clouds  
Wind Chill: 31°   Ceiling: Unl
Heat Index: 35°   Visibility: 10mi
Dew Point: 24°   Wind: 5mph
Humidity: 64%   Direction: 320°NW
Pressure: 30.2"   Gusts: NA
Location:  34.9842°N, 106.322°W
Report Text: KABQ 200452Z 32004KT 10SM FEW250 02/M04 A3020 RMK AO2 SLP225 T00171044
Loading
Personal Weather Stations






























Interactive Weather Map New forecast layout! Learn more

10-Day Weather Forecast

Advertisements
Track Severe Weather on mobile